Time;durP1;ratioP1;P1;durP2;ratioP2;P2;SDS_P1;SDS_P2;PMS_P1;PMS_P2;Temp;Humidity;BMP_temperature;BMP_pressure;BME280_temperature;BME280_humidity;BME280_pressure;Samples;Min_cycle;Max_cycle;Signal;HPM_P1;HPM_P2
2021/03/30 12:38:24;;;;;;;7.90;4.18;;;20.90;33.40;;;;;;5117664;27;20394;-72
2021/03/30 12:40:51;;;;;;;6.65;4.53;;;20.80;34.80;;;;;;5080866;28;20035;-71
2021/03/30 12:43:17;;;;;;;10.73;4.88;;;20.90;33.70;;;;;;5051787;28;20181;-71
2021/03/30 12:45:46;;;;;;;8.02;4.20;;;21.00;35.20;;;;;;5077549;28;20044;-72
2021/03/30 12:48:13;;;;;;;6.90;3.80;;;20.90;35.70;;;;;;5010067;28;20096;-72
2021/03/30 12:50:40;;;;;;;6.22;4.03;;;21.00;35.80;;;;;;5089873;28;20040;-71
2021/03/30 12:53:06;;;;;;;5.18;3.55;;;20.90;31.80;;;;;;5074969;28;20517;-72
2021/03/30 12:55:33;;;;;;;8.68;3.47;;;21.00;31.60;;;;;;5077390;28;20037;-72
2021/03/30 12:57:59;;;;;;;8.32;4.30;;;20.90;30.90;;;;;;5076739;28;20155;-72
2021/03/30 13:00:25;;;;;;;7.72;4.07;;;20.90;30.40;;;;;;5076219;28;20186;-71
2021/03/30 13:02:51;;;;;;;5.88;4.35;;;20.80;30.60;;;;;;5073400;28;20121;-71
2021/03/30 13:05:17;;;;;;;7.75;3.40;;;20.80;32.20;;;;;;5092461;28;20670;-71
2021/03/30 13:07:45;;;;;;;10.27;3.88;;;20.90;30.00;;;;;;5074446;28;20036;-71
2021/03/30 13:10:12;;;;;;;7.28;3.53;;;20.90;30.50;;;;;;5080735;28;20048;-71
2021/03/30 13:12:38;;;;;;;5.40;3.28;;;21.00;32.10;;;;;;5077093;28;20852;-71
2021/03/30 13:15:05;;;;;;;8.35;3.78;;;21.10;32.20;;;;;;5076858;28;20036;-71
2021/03/30 13:17:31;;;;;;;6.22;3.58;;;21.20;30.30;;;;;;5080463;28;20028;-70
2021/03/30 13:20:01;;;;;;;7.60;3.35;;;21.20;30.60;;;;;;5079185;28;20048;-72
2021/03/30 13:22:27;;;;;;;5.70;3.38;;;21.30;30.30;;;;;;5092200;28;20059;-72
2021/03/30 13:24:57;;;;;;;6.10;3.28;;;21.40;29.70;;;;;;5060998;28;20040;-72
2021/03/30 13:27:23;;;;;;;4.78;2.92;;;21.50;29.50;;;;;;5076228;28;20043;-72
2021/03/30 13:29:50;;;;;;;6.55;2.88;;;21.50;28.90;;;;;;5078212;28;20050;-71
2021/03/30 13:32:17;;;;;;;6.53;3.63;;;21.50;29.50;;;;;;5075950;28;20032;-72
2021/03/30 13:34:44;;;;;;;7.95;3.38;;;21.50;30.20;;;;;;5089743;28;20182;-71
2021/03/30 13:37:11;;;;;;;6.47;3.42;;;21.60;29.90;;;;;;5058841;28;20044;-72
2021/03/30 13:39:38;;;;;;;7.65;3.30;;;21.70;28.60;;;;;;5060200;28;20043;-72
2021/03/30 13:42:06;;;;;;;6.13;3.58;;;21.90;28.00;;;;;;5078857;28;20040;-71
2021/03/30 13:44:32;;;;;;;5.47;3.28;;;22.00;28.80;;;;;;5078629;28;20722;-72
2021/03/30 13:46:59;;;;;;;4.70;3.30;;;22.10;28.00;;;;;;5076312;28;20154;-72
2021/03/30 13:49:27;;;;;;;5.47;3.50;;;22.20;28.30;;;;;;5094663;27;20072;-71
2021/03/30 13:51:54;;;;;;;6.50;3.50;;;22.20;27.40;;;;;;5011162;28;20133;-72
2021/03/30 13:54:23;;;;;;;5.43;3.70;;;22.30;28.80;;;;;;5079308;28;20036;-72
2021/03/30 13:56:49;;;;;;;5.05;3.55;;;22.40;27.70;;;;;;5046059;28;20442;-71
2021/03/30 13:59:15;;;;;;;6.05;3.80;;;22.40;27.20;;;;;;5083011;28;20396;-72
2021/03/30 14:01:42;;;;;;;6.38;3.17;;;22.50;27.50;;;;;;5059426;28;20052;-71
2021/03/30 14:04:08;;;;;;;5.25;3.25;;;22.50;26.00;;;;;;5062234;28;20032;-72
2021/03/30 14:06:34;;;;;;;4.90;2.95;;;22.40;25.00;;;;;;5099914;27;20036;-79
2021/03/30 14:09:01;;;;;;;4.63;2.70;;;22.50;25.60;;;;;;5062157;28;20064;-80
2021/03/30 14:11:42;;;;;;;5.80;2.75;;;22.40;25.10;;;;;;5065227;28;20109;-81
2021/03/30 14:14:15;;;;;;;5.80;3.40;;;22.50;25.10;;;;;;5060767;28;20045;-80
2021/03/30 14:19:25;;;;;;;7.90;3.20;;;22.70;24.60;;;;;;5063319;28;20063;-81
2021/03/30 14:21:57;;;;;;;4.80;2.70;;;22.70;25.40;;;;;;5077612;28;20418;-81
2021/03/30 14:24:47;;;;;;;5.03;3.00;;;22.80;24.10;;;;;;5062853;28;20033;-81
2021/03/30 14:27:13;;;;;;;5.55;3.05;;;22.90;26.20;;;;;;5059396;28;20068;-71
2021/03/30 14:29:45;;;;;;;5.18;2.75;;;23.00;24.60;;;;;;5047293;28;20045;-71
2021/03/30 14:32:15;;;;;;;6.13;3.10;;;23.10;22.30;;;;;;5064811;28;20075;-72
2021/03/30 14:34:42;;;;;;;4.97;3.28;;;23.00;23.00;;;;;;5048975;28;20086;-71
2021/03/30 14:37:11;;;;;;;5.78;2.90;;;23.00;25.20;;;;;;5062551;28;20052;-72
2021/03/30 14:39:38;;;;;;;5.15;3.10;;;23.10;24.90;;;;;;5060877;28;20040;-72
2021/03/30 14:44:39;;;;;;;5.72;2.75;;;23.20;25.00;;;;;;5067418;28;20067;-82
2021/03/30 15:00:28;;;;;;;9.98;4.60;;;23.40;23.20;;;;;;5056067;28;20067;-71
2021/03/30 15:03:10;;;;;;;7.93;5.10;;;23.50;24.50;;;;;;5062691;28;20041;-71
2021/03/30 15:05:37;;;;;;;9.07;4.80;;;23.50;24.50;;;;;;5065402;28;20078;-71
2021/03/30 15:08:03;;;;;;;7.07;5.00;;;23.40;23.90;;;;;;5062429;28;20644;-72
2021/03/30 15:10:29;;;;;;;6.68;5.70;;;23.30;24.20;;;;;;5058421;28;20068;-73
2021/03/30 15:12:55;;;;;;;6.82;4.47;;;23.30;25.50;;;;;;5055604;28;20502;-73
2021/03/30 15:15:26;;;;;;;9.75;4.90;;;23.30;25.10;;;;;;5055574;28;20033;-73
2021/03/30 15:17:56;;;;;;;9.25;6.13;;;23.30;24.20;;;;;;5063144;28;20039;-74
2021/03/30 15:20:25;;;;;;;7.95;5.60;;;23.40;25.60;;;;;;5056297;28;20036;-73
2021/03/30 15:22:52;;;;;;;7.40;5.50;;;23.40;26.00;;;;;;5059739;28;20669;-72
2021/03/30 15:25:21;;;;;;;9.23;5.55;;;23.50;25.10;;;;;;5061801;28;20033;-72
2021/03/30 15:27:47;;;;;;;7.88;6.40;;;23.40;25.90;;;;;;5046575;28;20047;-72
2021/03/30 15:30:14;;;;;;;8.48;6.78;;;23.50;25.40;;;;;;5063777;28;20044;-72
2021/03/30 15:32:41;;;;;;;9.43;6.63;;;23.50;25.60;;;;;;5078731;28;20491;-71
2021/03/30 15:35:08;;;;;;;9.55;7.65;;;23.50;26.90;;;;;;5060493;28;20451;-72
2021/03/30 15:37:35;;;;;;;11.18;7.68;;;23.50;25.20;;;;;;5062122;28;20048;-72
2021/03/30 15:40:18;;;;;;;8.82;6.93;;;23.40;26.40;;;;;;5062420;28;20102;-72
2021/03/30 15:42:45;;;;;;;10.20;7.63;;;23.30;27.00;;;;;;5073586;28;20036;-72
2021/03/30 15:47:43;;;;;;;10.45;8.00;;;23.10;27.90;;;;;;5059936;28;20068;-72
2021/03/30 15:50:11;;;;;;;9.85;7.60;;;23.00;27.60;;;;;;5075761;28;20067;-71
2021/03/30 15:52:40;;;;;;;11.10;8.20;;;22.90;27.70;;;;;;5058263;28;20134;-72
2021/03/30 15:55:11;;;;;;;10.07;7.60;;;22.80;27.90;;;;;;5059616;28;20044;-72
2021/03/30 15:57:42;;;;;;;10.18;8.25;;;22.90;28.20;;;;;;5061762;28;20044;-72
2021/03/30 16:00:11;;;;;;;10.38;7.93;;;22.90;29.40;;;;;;5072293;28;20044;-72
2021/03/30 16:02:43;;;;;;;11.18;8.30;;;22.90;29.30;;;;;;5059259;28;20043;-72
2021/03/30 16:05:13;;;;;;;9.38;7.93;;;22.90;28.30;;;;;;5057950;28;20557;-73
2021/03/30 16:07:40;;;;;;;10.15;8.10;;;22.90;28.40;;;;;;5059487;28;20056;-72
2021/03/30 16:10:07;;;;;;;10.73;7.90;;;22.80;29.10;;;;;;5095501;28;20051;-72
2021/03/30 16:12:33;;;;;;;9.95;7.65;;;22.70;28.70;;;;;;5062214;28;20048;-72
2021/03/30 16:15:00;;;;;;;9.95;8.10;;;22.60;28.70;;;;;;5060588;28;20052;-72
2021/03/30 16:17:26;;;;;;;9.57;7.95;;;22.50;29.90;;;;;;5061105;28;20028;-72
2021/03/30 16:19:52;;;;;;;9.65;8.57;;;22.40;29.90;;;;;;5066306;28;20037;-72
2021/03/30 16:22:21;;;;;;;9.50;8.50;;;22.50;29.70;;;;;;5059185;28;20043;-72
2021/03/30 16:24:47;;;;;;;10.68;8.88;;;22.50;29.20;;;;;;5078398;28;22116;-72
2021/03/30 16:27:13;;;;;;;11.10;8.93;;;22.50;29.90;;;;;;5062343;28;20119;-72
2021/03/30 16:29:38;;;;;;;10.63;8.60;;;22.40;30.60;;;;;;5064391;28;20037;-72
2021/03/30 16:32:07;;;;;;;10.95;8.77;;;22.40;30.30;;;;;;5062788;28;20124;-73
2021/03/30 16:34:34;;;;;;;10.38;9.07;;;22.30;30.10;;;;;;5064107;28;20037;-73
2021/03/30 16:37:00;;;;;;;12.05;8.90;;;22.40;31.70;;;;;;5061682;28;20183;-72
2021/03/30 16:39:26;;;;;;;10.52;8.32;;;22.50;30.60;;;;;;5060864;28;20506;-73
2021/03/30 16:41:54;;;;;;;10.55;8.77;;;22.50;30.30;;;;;;5080202;28;20114;-72
2021/03/30 16:44:22;;;;;;;11.13;8.60;;;22.50;30.50;;;;;;5062913;28;20040;-73
2021/03/30 16:46:51;;;;;;;11.70;8.68;;;22.50;30.80;;;;;;5063496;28;20032;-73
2021/03/30 16:49:17;;;;;;;9.98;7.88;;;22.40;30.20;;;;;;5061877;28;20033;-73
2021/03/30 16:51:44;;;;;;;11.05;8.57;;;22.30;31.40;;;;;;5066064;28;20518;-72
2021/03/30 16:54:10;;;;;;;10.98;7.68;;;22.30;31.00;;;;;;5064681;28;20036;-73
2021/03/30 16:56:36;;;;;;;12.40;8.93;;;22.30;31.90;;;;;;5064004;28;20120;-73
2021/03/30 16:59:03;;;;;;;11.63;8.40;;;22.30;31.20;;;;;;5090615;28;20119;-73
2021/03/30 17:01:29;;;;;;;15.20;8.45;;;22.40;30.10;;;;;;5061369;28;20051;-73
2021/03/30 17:03:55;;;;;;;13.60;8.10;;;22.50;30.60;;;;;;5060151;28;20050;-72
2021/03/30 17:06:21;;;;;;;14.80;9.15;;;22.50;30.60;;;;;;5060924;28;20032;-73
2021/03/30 17:08:51;;;;;;;11.32;8.60;;;22.40;31.10;;;;;;5094098;28;20045;-73
2021/03/30 17:11:17;;;;;;;10.48;8.32;;;22.30;30.30;;;;;;5057813;28;20105;-72
2021/03/30 17:13:43;;;;;;;14.27;9.20;;;22.00;31.80;;;;;;5060248;28;20044;-72
2021/03/30 17:16:09;;;;;;;13.32;8.90;;;21.90;31.60;;;;;;5064753;28;20457;-72
2021/03/30 17:18:35;;;;;;;10.82;8.68;;;21.80;31.60;;;;;;5068017;28;20068;-72
2021/03/30 17:21:04;;;;;;;11.85;8.50;;;21.60;31.80;;;;;;5064053;28;20036;-73
2021/03/30 17:23:30;;;;;;;15.13;8.93;;;21.50;31.80;;;;;;5061886;28;20036;-72
2021/03/30 17:25:59;;;;;;;12.25;8.77;;;21.30;31.40;;;;;;5048990;28;20094;-72
2021/03/30 17:28:26;;;;;;;12.40;8.43;;;21.20;31.50;;;;;;5063489;28;20148;-72
2021/03/30 17:30:52;;;;;;;11.45;8.65;;;20.90;32.00;;;;;;5067548;28;20434;-71
2021/03/30 17:33:19;;;;;;;9.40;7.43;;;20.80;33.00;;;;;;5067163;28;20036;-72
2021/03/30 17:35:45;;;;;;;11.88;6.60;;;20.50;34.70;;;;;;5064165;28;20055;-72
2021/03/30 17:38:12;;;;;;;11.00;7.00;;;20.30;36.30;;;;;;5066749;28;20669;-72
2021/03/30 17:40:39;;;;;;;11.73;5.90;;;19.90;38.00;;;;;;5080001;28;20131;-72
2021/03/30 17:43:05;;;;;;;9.82;5.85;;;19.60;38.50;;;;;;5081191;28;20137;-72
2021/03/30 17:45:31;;;;;;;9.80;6.35;;;19.30;39.20;;;;;;5061447;28;20056;-72
2021/03/30 17:47:57;;;;;;;13.25;6.28;;;19.10;39.10;;;;;;5064061;28;20079;-73
2021/03/30 17:50:23;;;;;;;10.32;6.95;;;19.00;39.60;;;;;;5072380;28;20818;-72
2021/03/30 17:52:49;;;;;;;10.82;6.80;;;18.80;39.10;;;;;;5064727;28;20381;-71
2021/03/30 17:55:17;;;;;;;11.48;6.57;;;18.50;38.60;;;;;;5067416;28;20124;-73
2021/03/30 17:57:44;;;;;;;8.60;5.30;;;18.30;38.90;;;;;;5083163;28;20387;-73
2021/03/30 18:00:13;;;;;;;6.22;4.47;;;18.00;39.00;;;;;;5059455;28;20047;-73
2021/03/30 18:02:39;;;;;;;9.05;5.15;;;17.80;40.20;;;;;;5063067;28;20037;-73
2021/03/30 18:05:08;;;;;;;8.27;5.10;;;17.60;40.90;;;;;;5059425;28;20040;-73
2021/03/30 18:07:38;;;;;;;8.05;4.93;;;17.50;41.20;;;;;;5063144;28;20044;-73
2021/03/30 18:10:05;;;;;;;9.95;5.80;;;17.40;42.00;;;;;;5063899;28;20036;-73
2021/03/30 18:12:32;;;;;;;9.60;5.22;;;17.30;42.40;;;;;;5077575;28;20033;-73
2021/03/30 18:14:58;;;;;;;7.35;5.13;;;17.10;42.50;;;;;;5063899;28;20035;-73
2021/03/30 18:17:24;;;;;;;11.35;6.72;;;17.00;43.20;;;;;;5063381;28;20041;-73
2021/03/30 18:19:50;;;;;;;9.40;5.97;;;16.70;45.20;;;;;;5065938;28;20033;-72
2021/03/30 18:22:16;;;;;;;7.90;5.22;;;16.50;47.20;;;;;;5062411;28;20047;-72
2021/03/30 18:24:42;;;;;;;10.10;5.97;;;16.30;48.60;;;;;;5064027;28;20115;-72
2021/03/30 18:27:08;;;;;;;9.48;6.55;;;16.20;48.40;;;;;;5080332;28;21361;-72
2021/03/30 18:29:35;;;;;;;10.25;6.20;;;16.00;47.80;;;;;;5061411;28;20041;-72
2021/03/30 18:32:06;;;;;;;11.77;6.85;;;16.00;48.30;;;;;;5064225;28;20685;-72
2021/03/30 18:34:32;;;;;;;;;;;15.90;48.10;;;;;;5063947;28;20032;-72
2021/03/30 18:36:58;;;;;;;10.77;6.18;;;15.80;47.60;;;;;;5062396;28;19927;-73
2021/03/30 18:39:25;;;;;;;10.70;6.32;;;15.70;47.40;;;;;;5048934;28;20048;-73
2021/03/30 18:41:51;;;;;;;9.85;5.63;;;15.60;47.70;;;;;;5045159;28;20037;-73
2021/03/30 18:44:17;;;;;;;14.35;8.25;;;15.30;48.50;;;;;;5061346;28;20055;-73
2021/03/30 18:46:44;;;;;;;12.77;6.65;;;15.20;48.90;;;;;;5061215;28;20111;-72
2021/03/30 18:49:10;;;;;;;11.68;6.70;;;15.00;49.30;;;;;;5062861;28;20059;-73
2021/03/30 18:51:37;;;;;;;10.38;6.53;;;14.90;50.40;;;;;;5063776;28;20872;-72
2021/03/30 18:54:04;;;;;;;11.00;6.63;;;14.80;51.80;;;;;;5059065;28;20037;-72
2021/03/30 18:56:30;;;;;;;9.85;6.43;;;14.70;53.60;;;;;;5065773;28;20588;-72
2021/03/30 18:58:58;;;;;;;12.07;6.78;;;14.50;53.90;;;;;;5062331;28;20478;-73
2021/03/30 19:01:24;;;;;;;12.07;8.30;;;14.40;54.00;;;;;;5055366;28;20056;-72
2021/03/30 19:03:51;;;;;;;8.95;6.32;;;14.30;52.40;;;;;;5060720;28;20045;-73
2021/03/30 19:06:17;;;;;;;9.95;7.07;;;14.20;51.10;;;;;;5063678;28;20037;-73
2021/03/30 19:08:43;;;;;;;10.60;7.05;;;14.10;51.70;;;;;;5060722;28;20467;-72
2021/03/30 19:11:30;;;;;;;12.07;6.63;;;14.00;52.40;;;;;;5062509;28;20043;-72
2021/03/30 19:13:57;;;;;;;11.35;7.80;;;13.90;52.70;;;;;;5060206;28;20901;-73
2021/03/30 19:16:23;;;;;;;14.30;8.07;;;13.80;52.40;;;;;;5061747;28;20120;-73
2021/03/30 19:18:50;;;;;;;14.52;8.23;;;13.80;52.20;;;;;;5058474;28;20078;-73
2021/03/30 19:21:16;;;;;;;12.32;7.63;;;13.80;52.80;;;;;;5065064;28;20488;-72
2021/03/30 19:23:42;;;;;;;13.15;7.53;;;13.80;53.00;;;;;;5059404;28;20056;-73
2021/03/30 19:26:07;;;;;;;11.75;8.48;;;13.70;52.70;;;;;;5044659;28;20064;-72
2021/03/30 19:28:37;;;;;;;9.02;7.20;;;13.70;52.50;;;;;;5058524;28;20098;-72
2021/03/30 19:31:05;;;;;;;11.43;7.75;;;13.60;53.70;;;;;;5061900;28;20033;-73
2021/03/30 19:33:36;;;;;;;11.68;7.60;;;13.30;55.60;;;;;;5060052;28;20091;-73
2021/03/30 19:36:03;;;;;;;13.00;8.02;;;13.10;55.90;;;;;;5058623;28;20037;-73
2021/03/30 19:38:30;;;;;;;12.07;7.88;;;13.00;55.60;;;;;;5096004;28;20592;-73
2021/03/30 19:40:58;;;;;;;11.27;7.90;;;12.90;56.20;;;;;;5061064;28;20526;-73
2021/03/30 19:43:24;;;;;;;10.98;7.47;;;12.80;57.10;;;;;;5056482;28;20405;-73
2021/03/30 19:45:50;;;;;;;10.73;7.30;;;12.70;57.20;;;;;;5055735;28;20499;-73
2021/03/30 19:48:18;;;;;;;13.07;7.45;;;12.60;56.70;;;;;;5056448;28;20032;-72
2021/03/30 19:50:45;;;;;;;12.70;8.00;;;12.50;57.40;;;;;;5059234;28;20087;-73
2021/03/30 19:53:10;;;;;;;12.00;7.47;;;12.50;56.70;;;;;;5063941;28;20387;-72
2021/03/30 19:55:37;;;;;;;8.27;6.53;;;12.40;56.50;;;;;;5064588;28;20041;-73
2021/03/30 19:58:08;;;;;;;12.98;8.27;;;12.40;57.10;;;;;;5081635;28;20055;-73
2021/03/30 20:00:37;;;;;;;11.60;6.97;;;12.40;56.10;;;;;;5063827;28;20036;-72
2021/03/30 20:03:04;;;;;;;10.98;7.45;;;12.40;55.40;;;;;;5080990;28;20072;-72
2021/03/30 20:05:30;;;;;;;9.90;7.65;;;12.50;55.50;;;;;;5065201;28;20040;-73
2021/03/30 20:08:00;;;;;;;11.13;7.00;;;12.40;56.00;;;;;;5079544;28;20056;-72
2021/03/30 20:10:27;;;;;;;10.90;7.13;;;12.30;56.60;;;;;;5042934;28;20502;-72
2021/03/30 20:12:54;;;;;;;11.73;7.57;;;12.20;57.20;;;;;;5064662;28;20044;-72
2021/03/30 20:15:21;;;;;;;10.77;6.97;;;12.10;58.00;;;;;;5059797;28;20043;-72
2021/03/30 20:17:47;;;;;;;13.02;8.43;;;12.10;58.40;;;;;;5062188;28;20036;-73
2021/03/30 20:20:15;;;;;;;10.70;7.80;;;12.00;57.90;;;;;;5061338;28;20044;-73
2021/03/30 20:22:41;;;;;;;12.55;7.15;;;12.00;59.30;;;;;;5057349;28;20090;-73
2021/03/30 20:25:09;;;;;;;12.70;7.82;;;12.00;59.30;;;;;;5063095;28;20072;-73
2021/03/30 20:27:36;;;;;;;11.65;7.53;;;11.90;59.50;;;;;;5059921;28;20068;-72
2021/03/30 20:30:04;;;;;;;10.88;7.05;;;11.80;59.70;;;;;;5079717;28;20066;-72
2021/03/30 20:32:30;;;;;;;13.73;8.07;;;11.80;59.50;;;;;;5061183;28;20049;-72
2021/03/30 20:34:56;;;;;;;10.73;7.25;;;11.80;59.70;;;;;;5075639;28;20098;-72
2021/03/30 20:37:22;;;;;;;11.48;7.88;;;11.90;59.80;;;;;;5066525;28;20040;-73
2021/03/30 20:39:49;;;;;;;10.52;8.27;;;11.90;60.10;;;;;;5079276;28;20064;-72
2021/03/30 20:42:15;;;;;;;12.65;7.78;;;11.90;60.00;;;;;;5061920;28;20048;-72
2021/03/30 20:44:40;;;;;;;11.43;7.90;;;11.80;59.60;;;;;;5063400;28;20046;-72
2021/03/30 20:47:07;;;;;;;12.48;8.48;;;11.70;59.50;;;;;;5046919;28;20535;-72
2021/03/30 20:49:33;;;;;;;12.35;7.88;;;11.70;59.20;;;;;;5061103;28;20052;-72
2021/03/30 20:52:01;;;;;;;18.65;9.70;;;11.50;59.30;;;;;;5061853;28;20048;-72
2021/03/30 20:54:27;;;;;;;10.80;7.97;;;11.40;59.50;;;;;;5061529;28;20039;-72
2021/03/30 20:56:54;;;;;;;12.27;8.07;;;11.30;59.20;;;;;;5062067;28;20044;-72
2021/03/30 20:59:20;;;;;;;12.07;8.43;;;11.10;60.60;;;;;;5064919;28;20049;-72
2021/03/30 21:01:46;;;;;;;11.90;8.75;;;10.90;62.40;;;;;;5060009;28;20849;-72
2021/03/30 21:04:12;;;;;;;13.40;8.38;;;10.90;63.00;;;;;;5066505;28;20070;-72
2021/03/30 21:06:38;;;;;;;10.05;8.02;;;10.80;63.90;;;;;;5065039;28;20184;-72
2021/03/30 21:09:05;;;;;;;10.20;7.30;;;10.70;65.00;;;;;;5051241;28;20043;-72
2021/03/30 21:11:31;;;;;;;9.68;7.13;;;10.70;65.10;;;;;;5064723;28;20044;-72
2021/03/30 21:14:00;;;;;;;12.55;8.13;;;10.60;65.50;;;;;;5094689;28;20048;-72
2021/03/30 21:16:26;;;;;;;9.73;7.03;;;10.60;66.10;;;;;;5065605;28;20570;-72
2021/03/30 21:18:52;;;;;;;11.38;7.65;;;10.50;64.80;;;;;;5064203;28;20040;-72
2021/03/30 21:21:19;;;;;;;11.77;7.35;;;10.40;64.30;;;;;;5065739;28;20041;-72
2021/03/30 21:23:46;;;;;;;9.48;6.78;;;10.40;64.60;;;;;;5066115;28;20112;-72
2021/03/30 21:26:12;;;;;;;11.52;7.60;;;10.30;64.90;;;;;;5065574;28;20049;-72
2021/03/30 21:28:38;;;;;;;13.93;7.53;;;10.20;65.90;;;;;;5075661;28;20489;-72
2021/03/30 21:31:04;;;;;;;9.02;6.65;;;10.10;67.60;;;;;;5054858;28;20063;-73
2021/03/30 21:33:31;;;;;;;10.75;6.53;;;10.00;67.80;;;;;;5062185;28;20118;-72
2021/03/30 21:35:57;;;;;;;11.20;7.20;;;10.00;67.70;;;;;;5059094;28;20041;-72
2021/03/30 21:38:23;;;;;;;12.00;7.32;;;10.00;67.80;;;;;;5060078;28;20043;-72
2021/03/30 21:40:49;;;;;;;10.75;7.00;;;10.00;67.00;;;;;;5059760;28;20506;-72
2021/03/30 21:43:15;;;;;;;12.00;8.10;;;10.10;66.60;;;;;;5077372;28;20056;-72
2021/03/30 21:45:41;;;;;;;9.98;6.95;;;10.10;65.30;;;;;;5064598;28;20036;-72
2021/03/30 21:48:07;;;;;;;12.07;8.25;;;10.20;65.10;;;;;;5058802;28;20033;-72
2021/03/30 21:50:33;;;;;;;11.52;7.95;;;10.20;64.80;;;;;;5031792;28;20033;-72
2021/03/30 21:52:59;;;;;;;12.07;8.93;;;10.10;64.90;;;;;;5065666;28;20130;-72
2021/03/30 21:55:26;;;;;;;12.27;8.52;;;10.20;65.90;;;;;;5068232;28;20067;-72
2021/03/30 21:57:53;;;;;;;11.73;7.88;;;9.90;66.20;;;;;;5065342;28;20041;-73
2021/03/30 22:00:31;;;;;;;11.02;7.88;;;9.80;66.00;;;;;;5081465;28;20052;-72
2021/03/30 22:02:58;;;;;;;10.82;8.48;;;9.70;67.00;;;;;;5066068;28;20043;-72
2021/03/30 22:05:24;;;;;;;12.38;8.43;;;9.60;67.10;;;;;;5061943;28;20053;-72
2021/03/30 22:07:53;;;;;;;12.38;8.45;;;9.50;67.20;;;;;;5064804;28;20075;-72
2021/03/30 22:10:45;;;;;;;11.02;7.78;;;9.50;67.50;;;;;;5063886;28;20122;-72
2021/03/30 22:13:19;;;;;;;11.70;7.82;;;9.40;67.90;;;;;;5058838;28;20442;-72
2021/03/30 22:15:51;;;;;;;9.73;6.65;;;9.40;68.10;;;;;;5070778;28;20119;-72
2021/03/30 22:18:17;;;;;;;12.50;7.53;;;9.40;67.80;;;;;;5053419;28;20040;-72
2021/03/30 22:20:47;;;;;;;10.63;7.85;;;9.50;68.10;;;;;;5041365;28;20086;-72
2021/03/30 22:23:25;;;;;;;12.27;8.73;;;9.50;68.10;;;;;;5056810;28;20056;-72
2021/03/30 22:25:56;;;;;;;9.65;7.85;;;9.50;68.30;;;;;;5080705;28;20063;-72
2021/03/30 22:28:22;;;;;;;;;;;9.50;68.50;;;;;;5077104;28;20036;-72
2021/03/30 22:30:56;;;;;;;10.00;8.00;;;9.50;71.00;;;;;;5079620;28;19972;-72
2021/03/30 22:33:22;;;;;;;11.82;7.63;;;9.40;68.80;;;;;;5079915;28;20037;-72
2021/03/30 22:35:49;;;;;;;10.50;7.97;;;9.40;68.40;;;;;;5059814;28;20041;-72
2021/03/30 22:38:18;;;;;;;11.65;7.15;;;9.30;68.60;;;;;;5063602;28;20059;-72
2021/03/30 22:40:46;;;;;;;11.75;7.70;;;9.20;68.40;;;;;;5047563;28;20041;-72
2021/03/30 22:43:12;;;;;;;10.02;6.63;;;9.00;68.20;;;;;;5065514;28;20041;-72
2021/03/30 22:45:38;;;;;;;12.63;7.60;;;8.80;67.70;;;;;;5061118;28;20113;-72
2021/03/30 22:48:05;;;;;;;10.68;8.40;;;8.70;67.30;;;;;;5045758;28;20068;-72
2021/03/30 22:50:31;;;;;;;11.27;7.57;;;8.50;67.70;;;;;;5066838;28;20123;-72
2021/03/30 22:52:57;;;;;;;12.75;8.52;;;8.50;68.30;;;;;;5063343;28;20056;-72
2021/03/30 22:55:23;;;;;;;9.95;7.63;;;8.50;68.30;;;;;;5062919;28;20116;-72
2021/03/30 22:57:49;;;;;;;13.38;7.80;;;8.50;68.20;;;;;;5056902;28;20040;-72
2021/03/30 23:00:23;;;;;;;11.25;7.68;;;8.60;68.40;;;;;;5067232;28;20044;-72
2021/03/30 23:02:49;;;;;;;13.73;7.60;;;8.60;68.50;;;;;;5059515;28;20036;-72
2021/03/30 23:05:16;;;;;;;14.48;8.05;;;8.50;69.00;;;;;;5065360;28;20071;-71
2021/03/30 23:07:42;;;;;;;10.85;8.23;;;8.40;69.60;;;;;;5065618;28;20952;-71
2021/03/30 23:10:10;;;;;;;10.88;7.88;;;8.30;70.10;;;;;;5063872;28;20711;-71
2021/03/30 23:12:36;;;;;;;12.48;7.55;;;8.30;70.30;;;;;;5065352;28;20414;-70
2021/03/30 23:15:03;;;;;;;10.80;8.57;;;8.20;70.50;;;;;;5059979;28;20048;-71
2021/03/30 23:17:29;;;;;;;9.93;7.00;;;8.20;70.40;;;;;;5061704;28;20112;-71
2021/03/30 23:19:55;;;;;;;10.03;7.77;;;8.10;70.10;;;;;;5065453;28;20115;-71
2021/03/30 23:22:21;;;;;;;10.50;7.60;;;8.10;70.40;;;;;;5061279;28;20043;-71
2021/03/30 23:24:47;;;;;;;14.27;8.88;;;8.20;70.40;;;;;;5046767;28;20037;-71
2021/03/30 23:27:13;;;;;;;11.40;8.63;;;8.20;69.80;;;;;;5057385;28;20045;-71
2021/03/30 23:29:40;;;;;;;12.25;8.57;;;8.10;69.90;;;;;;5067718;28;20040;-71
2021/03/30 23:32:07;;;;;;;13.55;9.45;;;7.90;70.30;;;;;;5081152;28;20033;-71
2021/03/30 23:34:33;;;;;;;14.60;9.90;;;7.70;70.80;;;;;;5048806;28;20067;-71
2021/03/30 23:36:59;;;;;;;12.27;9.32;;;7.50;72.00;;;;;;5063119;28;20157;-71
2021/03/30 23:39:25;;;;;;;12.43;8.35;;;7.50;73.20;;;;;;5065955;28;20493;-71
2021/03/30 23:41:51;;;;;;;12.43;9.13;;;7.40;73.60;;;;;;5058380;28;20032;-71
2021/03/30 23:44:17;;;;;;;12.60;8.40;;;7.50;73.30;;;;;;5078641;28;20062;-71
2021/03/30 23:46:43;;;;;;;10.57;7.97;;;7.40;73.20;;;;;;5060749;28;20040;-71
2021/03/30 23:49:09;;;;;;;10.38;8.40;;;7.40;73.10;;;;;;5064425;28;20555;-71
2021/03/30 23:51:35;;;;;;;11.60;8.80;;;7.40;73.50;;;;;;5064382;28;20093;-71
2021/03/30 23:54:02;;;;;;;12.20;8.23;;;7.30;74.20;;;;;;5046156;28;20789;-71
2021/03/30 23:56:28;;;;;;;13.10;8.85;;;7.30;74.40;;;;;;5064259;28;20119;-71
2021/03/30 23:58:53;;;;;;;11.77;8.88;;;7.20;74.90;;;;;;5059450;28;20182;-70
